createdAt,value
2019-02-28T06:19:08.133Z,23.6
2019-02-28T06:29:12.573Z,22.4
2019-02-28T11:02:21.711Z,23.6
2019-02-28T11:12:25.216Z,23.6
2019-02-28T11:22:28.716Z,23.7
2019-02-28T11:32:32.234Z,23.8
2019-02-28T11:42:35.729Z,23.9
2019-02-28T11:52:39.243Z,23.1
2019-02-28T12:02:42.736Z,21.5
2019-02-28T12:12:46.263Z,21.3
2019-02-28T12:22:50.025Z,22.5
2019-02-28T12:32:53.588Z,23.4
2019-02-28T12:42:57.099Z,23.7
2019-02-28T12:53:00.644Z,23.8
2019-02-28T13:03:04.194Z,23.8
2019-02-28T13:13:07.995Z,23.8
2019-02-28T13:23:11.748Z,23.8
2019-02-28T13:33:16.105Z,23.9
2019-02-28T13:43:22.567Z,24
2019-02-28T13:53:26.996Z,24
2019-02-28T14:03:35.353Z,24.1
2019-02-28T14:13:39.330Z,24.1
2019-02-28T14:23:42.855Z,24.1
2019-02-28T14:33:46.336Z,24.1
2019-02-28T14:43:52.763Z,24.2
2019-02-28T14:54:00.285Z,24.2
2019-02-28T15:04:03.794Z,24.2
2019-02-28T15:14:08.556Z,24.2
2019-02-28T15:24:13.255Z,24.2
2019-02-28T15:34:16.752Z,24.2
2019-02-28T15:44:20.293Z,24.2
2019-02-28T15:54:25.160Z,24.3
2019-02-28T16:04:29.734Z,24.2
2019-02-28T16:14:34.679Z,22.2
2019-02-28T16:24:39.742Z,21.7
2019-02-28T16:34:44.116Z,22.7
2019-02-28T16:44:47.664Z,23.6
2019-02-28T16:54:53.340Z,23.8
2019-02-28T17:05:00.461Z,23.6
2019-02-28T17:15:03.936Z,23.6
2019-02-28T17:25:07.469Z,23.6
2019-02-28T17:35:10.967Z,23.5
2019-02-28T17:45:16.171Z,23.4
2019-02-28T17:55:19.988Z,23.4
2019-02-28T18:05:29.825Z,23.3
2019-02-28T18:15:42.060Z,23.3
2019-02-28T18:25:51.954Z,23.2
2019-02-28T18:35:56.902Z,23.2
2019-02-28T18:46:00.401Z,23.1
2019-02-28T18:56:03.900Z,23.1
2019-02-28T19:06:07.427Z,23.1
2019-02-28T19:16:10.916Z,23
2019-02-28T19:26:14.445Z,23
2019-02-28T19:36:17.975Z,23
2019-02-28T19:46:21.495Z,22.9
2019-02-28T19:56:24.980Z,22.9
2019-02-28T20:06:28.496Z,22.8
2019-02-28T20:16:31.971Z,22.8
2019-02-28T20:26:35.490Z,22.7
2019-02-28T20:36:39.008Z,22.7
2019-02-28T20:46:42.519Z,22.7
2019-02-28T20:56:46.027Z,22.7
2019-02-28T21:06:49.531Z,22.6
2019-02-28T21:16:53.034Z,22.6
2019-02-28T21:26:56.565Z,22.6
2019-02-28T21:37:00.055Z,22.5
2019-02-28T21:47:03.589Z,22.5
2019-02-28T21:57:07.169Z,22.5
2019-02-28T22:07:10.704Z,22.5
2019-02-28T22:17:14.193Z,22.5
2019-02-28T22:27:17.707Z,22.4
2019-02-28T22:37:21.221Z,22.4
2019-02-28T22:47:24.707Z,22.4
2019-02-28T22:57:28.204Z,22.3
2019-02-28T23:07:31.714Z,22.3
2019-02-28T23:17:35.189Z,22.3
2019-02-28T23:27:38.703Z,22.3
2019-02-28T23:37:42.233Z,22.3
2019-02-28T23:47:45.725Z,22.2
2019-02-28T23:57:49.253Z,22.3
